createdAt,value
2018-11-25T00:00:21.172Z,5.30
2018-11-25T00:02:49.933Z,5.20
2018-11-25T00:05:18.986Z,5.30
2018-11-25T00:07:48.133Z,5.20
2018-11-25T00:10:16.988Z,5.20
2018-11-25T00:12:45.355Z,5.20
2018-11-25T00:15:13.748Z,5.20
2018-11-25T00:17:43.246Z,5.10
2018-11-25T00:20:13.546Z,5.00
2018-11-25T00:22:42.815Z,4.90
2018-11-25T00:25:13.525Z,4.80
2018-11-25T00:27:42.196Z,4.60
2018-11-25T00:30:13.889Z,4.40
2018-11-25T00:32:42.388Z,4.30
2018-11-25T00:35:12.897Z,4.10
2018-11-25T00:37:48.107Z,3.90
2018-11-25T00:40:13.943Z,3.80
2018-11-25T00:42:43.303Z,3.60
2018-11-25T00:45:16.548Z,3.60
2018-11-25T00:47:45.119Z,3.70
2018-11-25T00:50:14.055Z,3.90
2018-11-25T00:52:42.832Z,4.00
2018-11-25T00:55:14.890Z,4.10
2018-11-25T00:57:43.318Z,4.10
2018-11-25T01:00:16.459Z,4.20
2018-11-25T01:02:45.182Z,4.20
2018-11-25T01:05:13.458Z,4.20
2018-11-25T01:07:42.316Z,4.20
2018-11-25T01:10:15.453Z,4.10
2018-11-25T01:12:44.340Z,4.10
2018-11-25T01:15:16.322Z,4.20
2018-11-25T01:17:44.700Z,4.30
2018-11-25T01:20:16.193Z,4.30
2018-11-25T01:22:44.398Z,4.40
2018-11-25T01:25:12.747Z,4.30
2018-11-25T01:27:41.370Z,4.20
2018-11-25T01:30:13.882Z,4.10
2018-11-25T01:32:42.179Z,4.10
2018-11-25T01:35:11.970Z,4.00
2018-11-25T01:37:40.470Z,3.90
2018-11-25T01:40:14.221Z,3.90
2018-11-25T01:42:42.576Z,3.80
2018-11-25T01:45:15.380Z,3.80
2018-11-25T01:47:43.732Z,3.70
2018-11-25T01:50:21.935Z,4.20
2018-11-25T01:52:50.160Z,3.50
2018-11-25T01:55:18.995Z,3.40
2018-11-25T01:57:47.553Z,3.20
2018-11-25T02:00:18.539Z,3.10
2018-11-25T02:02:47.537Z,3.20
2018-11-25T02:05:15.964Z,3.20
2018-11-25T02:07:44.316Z,3.30
2018-11-25T02:10:18.598Z,3.40
2018-11-25T02:12:47.229Z,3.50
2018-11-25T02:15:16.602Z,3.50
2018-11-25T02:17:44.887Z,3.50
2018-11-25T02:20:20.173Z,3.40
2018-11-25T02:22:48.845Z,3.30
2018-11-25T02:25:17.165Z,3.10
2018-11-25T02:27:45.486Z,3.10
2018-11-25T02:30:16.215Z,3.20
2018-11-25T02:32:44.820Z,3.20
2018-11-25T02:35:14.626Z,3.20
2018-11-25T02:37:42.896Z,3.10
2018-11-25T02:40:12.900Z,3.10
2018-11-25T02:42:41.112Z,3.00
2018-11-25T02:45:12.917Z,3.00
2018-11-25T02:47:41.231Z,2.80
2018-11-25T02:50:25.716Z,2.70
2018-11-25T02:52:55.639Z,2.60
2018-11-25T02:55:25.184Z,2.60
2018-11-25T02:57:53.402Z,2.60
2018-11-25T03:00:21.614Z,2.40
2018-11-25T03:02:50.163Z,2.30
2018-11-25T03:05:18.748Z,2.30
2018-11-25T03:07:46.894Z,2.20
2018-11-25T03:10:15.072Z,2.10
2018-11-25T03:12:43.226Z,2.10
2018-11-25T03:15:14.047Z,1.90
2018-11-25T03:17:42.222Z,2.00
2018-11-25T03:20:15.498Z,2.00
2018-11-25T03:22:44.089Z,2.10
2018-11-25T03:25:20.075Z,2.10
2018-11-25T03:27:48.375Z,2.00
2018-11-25T03:30:19.772Z,1.90
2018-11-25T03:32:49.525Z,1.70
2018-11-25T03:35:17.817Z,1.70
2018-11-25T03:37:46.039Z,1.80
2018-11-25T03:40:16.880Z,1.80
2018-11-25T03:42:45.078Z,1.90
2018-11-25T03:45:15.164Z,1.90
2018-11-25T03:47:43.380Z,2.00
2018-11-25T03:50:13.237Z,2.10
2018-11-25T03:52:41.932Z,2.10
2018-11-25T03:55:12.340Z,2.10
2018-11-25T03:57:40.782Z,2.10
2018-11-25T04:00:11.882Z,2.10
2018-11-25T04:02:40.209Z,2.10
2018-11-25T04:05:10.323Z,2.10
2018-11-25T04:07:38.517Z,2.00
2018-11-25T04:10:09.850Z,1.90
2018-11-25T04:12:38.186Z,1.80
2018-11-25T04:15:10.310Z,1.80
2018-11-25T04:17:39.021Z,2.00
2018-11-25T04:20:11.562Z,1.70
2018-11-25T04:22:39.867Z,1.40
2018-11-25T04:25:11.100Z,1.30
2018-11-25T04:27:39.316Z,1.10
2018-11-25T04:30:17.585Z,1.00
2018-11-25T04:32:47.270Z,1.10
2018-11-25T04:35:15.572Z,1.00
2018-11-25T04:37:44.125Z,0.90
2018-11-25T04:40:14.468Z,0.80
2018-11-25T04:42:42.754Z,0.70
2018-11-25T04:45:15.626Z,0.60
2018-11-25T04:47:44.541Z,0.50
2018-11-25T04:50:20.020Z,0.40
2018-11-25T04:52:48.490Z,0.30
2018-11-25T04:55:16.950Z,0.20
2018-11-25T04:57:46.802Z,0.30
2018-11-25T05:00:15.285Z,0.40
2018-11-25T05:02:43.525Z,0.60
2018-11-25T05:05:13.374Z,0.60
2018-11-25T05:07:41.772Z,0.60
2018-11-25T05:10:16.674Z,0.40
2018-11-25T05:12:45.020Z,0.20
2018-11-25T05:15:17.640Z,0.10
2018-11-25T05:17:46.197Z,0.10
2018-11-25T05:20:15.431Z,0.00
2018-11-25T05:22:43.650Z,0.00
2018-11-25T05:25:17.278Z,-0.10
2018-11-25T05:27:45.466Z,-0.20
2018-11-25T05:30:18.119Z,-0.10
2018-11-25T05:32:46.325Z,-0.10
2018-11-25T05:35:18.080Z,-0.10
2018-11-25T05:37:46.230Z,-0.20
2018-11-25T05:40:16.443Z,-0.30
2018-11-25T05:42:44.969Z,-0.30
2018-11-25T05:45:19.306Z,-0.30
2018-11-25T05:47:47.704Z,-0.30
2018-11-25T05:50:17.199Z,-0.30
2018-11-25T05:52:45.564Z,-0.20
2018-11-25T05:55:14.177Z,0.10
2018-11-25T05:57:42.704Z,1.20
2018-11-25T06:00:14.145Z,0.10
2018-11-25T06:02:42.303Z,0.10
2018-11-25T06:05:10.700Z,-0.10
2018-11-25T06:07:39.117Z,-0.30
2018-11-25T06:10:09.750Z,-0.30
2018-11-25T06:12:38.301Z,-0.20
2018-11-25T06:15:10.494Z,-0.10
2018-11-25T06:17:38.884Z,0.00
2018-11-25T06:20:11.075Z,0.10
2018-11-25T06:22:39.696Z,0.10
2018-11-25T06:25:10.423Z,0.00
2018-11-25T06:27:38.637Z,-0.10
2018-11-25T06:30:10.927Z,-0.10
2018-11-25T06:32:39.272Z,-0.20
2018-11-25T06:35:09.502Z,-0.30
2018-11-25T06:37:37.728Z,-0.30
2018-11-25T06:40:10.080Z,-0.30
2018-11-25T06:42:38.296Z,-0.40
2018-11-25T06:45:26.521Z,-0.40
2018-11-25T06:47:56.057Z,-0.40
2018-11-25T06:50:24.300Z,-0.40
2018-11-25T06:52:52.556Z,-0.30
2018-11-25T06:55:20.960Z,-0.30
2018-11-25T06:57:50.373Z,-0.30
2018-11-25T07:00:25.831Z,-0.40
2018-11-25T07:02:54.516Z,-0.50
2018-11-25T07:05:22.876Z,-0.50
2018-11-25T07:07:51.379Z,-0.50
2018-11-25T07:10:21.990Z,-0.50
2018-11-25T07:12:53.882Z,-0.50
2018-11-25T07:15:22.253Z,-0.50
2018-11-25T07:17:50.486Z,-0.50
2018-11-25T07:20:19.445Z,-0.50
2018-11-25T07:22:47.722Z,-0.40
2018-11-25T07:25:19.630Z,-0.30
2018-11-25T07:27:48.058Z,-0.20
2018-11-25T07:30:22.261Z,-0.10
2018-11-25T07:32:50.674Z,-0.10
2018-11-25T07:35:19.723Z,-0.20
2018-11-25T07:37:47.920Z,-0.10
2018-11-25T07:40:20.462Z,0.00
2018-11-25T07:42:49.333Z,0.10
2018-11-25T07:45:30.020Z,0.20
2018-11-25T07:47:53.689Z,0.20
2018-11-25T07:50:22.214Z,0.30
2018-11-25T07:52:51.812Z,0.30
2018-11-25T07:55:24.103Z,0.40
2018-11-25T07:57:55.660Z,0.50
2018-11-25T08:00:27.989Z,0.50
2018-11-25T08:02:57.436Z,0.60
2018-11-25T08:05:28.441Z,0.60
2018-11-25T08:07:56.720Z,0.70
2018-11-25T08:10:25.151Z,0.80
2018-11-25T08:12:53.399Z,0.80
2018-11-25T08:15:21.646Z,0.90
2018-11-25T08:17:50.188Z,1.00
2018-11-25T08:20:20.831Z,1.10
2018-11-25T08:22:49.824Z,1.50
2018-11-25T08:25:19.430Z,2.30
2018-11-25T08:27:47.790Z,3.40
2018-11-25T08:30:20.904Z,4.50
2018-11-25T08:32:49.502Z,5.50
2018-11-25T08:35:18.622Z,6.50
2018-11-25T08:37:46.863Z,7.10
2018-11-25T08:40:22.675Z,8.10
2018-11-25T08:42:51.383Z,9.10
2018-11-25T08:45:19.769Z,10.00
2018-11-25T08:47:48.157Z,10.60
2018-11-25T08:51:20.991Z,10.90
2018-11-25T08:53:49.300Z,10.80
2018-11-25T08:56:17.581Z,11.40
2018-11-25T08:58:45.913Z,11.80
2018-11-25T09:01:14.288Z,11.60
2018-11-25T09:03:43.098Z,11.70
2018-11-25T09:06:11.421Z,12.00
2018-11-25T09:08:39.613Z,12.10
2018-11-25T09:11:07.867Z,12.40
2018-11-25T09:13:36.290Z,13.20
2018-11-25T09:16:04.740Z,13.30
2018-11-25T09:18:32.927Z,13.70
2018-11-25T09:21:01.130Z,14.20
2018-11-25T09:23:29.336Z,14.20
2018-11-25T09:25:58.343Z,13.40
2018-11-25T09:28:26.641Z,12.80
2018-11-25T09:30:55.157Z,12.90
2018-11-25T09:33:25.114Z,13.10
2018-11-25T09:35:53.361Z,14.20
2018-11-25T09:38:23.151Z,15.20
2018-11-25T09:40:51.413Z,15.80
2018-11-25T09:43:19.892Z,16.60
2018-11-25T09:45:48.840Z,17.00
2018-11-25T09:48:22.654Z,16.90
2018-11-25T09:50:58.495Z,15.60
2018-11-25T09:53:44.903Z,15.20
2018-11-25T09:56:17.757Z,15.70
2018-11-25T09:58:46.756Z,15.60
2018-11-25T10:01:15.431Z,15.20
2018-11-25T10:03:43.868Z,15.30
2018-11-25T10:06:12.936Z,15.50
2018-11-25T10:08:40.745Z,15.30
2018-11-25T10:11:09.508Z,14.50
2018-11-25T10:13:37.764Z,14.60
2018-11-25T10:16:06.426Z,14.80
2018-11-25T10:18:35.785Z,14.60
2018-11-25T10:21:04.423Z,15.10
2018-11-25T10:23:32.847Z,15.50
2018-11-25T10:26:01.117Z,15.70
2018-11-25T10:28:30.777Z,15.30
2018-11-25T10:30:59.396Z,15.40
2018-11-25T10:33:28.323Z,15.70
2018-11-25T10:35:56.915Z,16.60
2018-11-25T10:38:25.173Z,16.20
2018-11-25T10:40:55.587Z,16.30
2018-11-25T10:43:23.881Z,16.60
2018-11-25T10:46:00.275Z,16.90
2018-11-25T10:48:58.047Z,17.00
2018-11-25T10:51:26.333Z,16.90
2018-11-25T10:53:55.822Z,16.10
2018-11-25T10:56:24.239Z,14.60
2018-11-25T10:58:52.541Z,13.30
2018-11-25T11:01:26.415Z,12.20
2018-11-25T11:03:55.108Z,11.60
2018-11-25T11:06:30.552Z,11.00
2018-11-25T11:08:58.874Z,10.70
2018-11-25T11:11:28.407Z,10.80
2018-11-25T11:13:56.825Z,11.30
2018-11-25T11:16:25.629Z,12.40
2018-11-25T11:18:54.379Z,13.30
2018-11-25T11:21:23.554Z,13.90
2018-11-25T11:23:51.802Z,14.20
2018-11-25T11:26:25.315Z,13.20
2018-11-25T11:28:53.861Z,12.10
2018-11-25T11:31:24.122Z,11.30
2018-11-25T11:33:52.463Z,10.60
2018-11-25T11:36:21.003Z,10.20
2018-11-25T11:38:49.552Z,10.10
2018-11-25T11:41:37.777Z,10.10
2018-11-25T11:44:06.992Z,10.20
2018-11-25T11:46:36.513Z,10.00
2018-11-25T11:49:05.195Z,9.90
2018-11-25T11:51:33.659Z,10.00
2018-11-25T11:54:02.599Z,10.10
2018-11-25T11:56:31.351Z,10.10
2018-11-25T11:58:59.954Z,10.10
2018-11-25T12:01:28.284Z,10.00
2018-11-25T12:03:56.805Z,10.00
2018-11-25T12:06:25.813Z,10.00
2018-11-25T12:08:54.017Z,9.90
2018-11-25T12:11:22.246Z,10.00
2018-11-25T12:13:51.141Z,10.00
2018-11-25T12:16:19.813Z,10.00
2018-11-25T12:18:48.578Z,9.90
2018-11-25T12:21:17.290Z,9.80
2018-11-25T12:23:45.650Z,9.80
2018-11-25T12:26:14.051Z,9.70
2018-11-25T12:28:42.390Z,9.80
2018-11-25T12:31:10.757Z,9.80
2018-11-25T12:33:40.123Z,9.90
2018-11-25T12:36:08.546Z,9.90
2018-11-25T12:38:37.082Z,10.00
2018-11-25T12:41:05.655Z,10.00
2018-11-25T12:43:33.916Z,10.00
2018-11-25T12:46:02.203Z,10.00
2018-11-25T12:48:30.821Z,10.00
2018-11-25T12:50:59.171Z,10.10
2018-11-25T12:53:28.272Z,10.10
2018-11-25T12:55:57.041Z,10.10
2018-11-25T12:58:25.516Z,10.20
2018-11-25T13:00:53.985Z,10.10
2018-11-25T13:03:22.330Z,10.10
2018-11-25T13:05:50.792Z,10.10
2018-11-25T13:08:19.192Z,10.20
2018-11-25T13:10:47.418Z,10.20
2018-11-25T13:13:17.181Z,10.30
2018-11-25T13:15:45.469Z,10.30
2018-11-25T13:18:13.707Z,10.30
2018-11-25T13:20:42.032Z,10.30
2018-11-25T13:23:10.273Z,10.30
2018-11-25T13:25:39.595Z,10.30
2018-11-25T13:28:08.622Z,10.30
2018-11-25T13:30:44.387Z,10.30
2018-11-25T13:33:13.003Z,10.30
2018-11-25T13:35:41.595Z,10.30
2018-11-25T13:38:09.974Z,10.30
2018-11-25T13:40:38.325Z,10.40
2018-11-25T13:43:07.379Z,10.40
2018-11-25T13:45:35.776Z,10.40
2018-11-25T13:48:04.051Z,10.50
2018-11-25T13:50:32.327Z,10.40
2018-11-25T13:53:00.878Z,10.40
2018-11-25T13:55:29.804Z,10.30
2018-11-25T13:57:58.081Z,10.20
2018-11-25T14:00:39.919Z,10.20
2018-11-25T14:03:11.264Z,10.80
2018-11-25T14:05:40.135Z,9.90
2018-11-25T14:08:09.143Z,9.80
2018-11-25T14:10:37.917Z,9.70
2018-11-25T14:13:07.304Z,9.50
2018-11-25T14:15:36.200Z,9.50
2018-11-25T14:18:05.083Z,9.50
2018-11-25T14:20:33.654Z,9.40
2018-11-25T14:23:02.459Z,9.30
2018-11-25T14:25:30.822Z,9.30
2018-11-25T14:28:02.514Z,9.40
2018-11-25T14:30:32.089Z,9.30
2018-11-25T14:33:00.662Z,9.30
2018-11-25T14:35:30.822Z,9.20
2018-11-25T14:37:59.094Z,9.40
2018-11-25T14:40:27.352Z,9.10
2018-11-25T14:42:56.085Z,9.00
2018-11-25T14:45:24.466Z,9.00
2018-11-25T14:47:52.893Z,8.90
2018-11-25T14:50:21.361Z,8.80
2018-11-25T14:52:51.639Z,8.70
2018-11-25T14:55:20.660Z,8.60
2018-11-25T14:57:49.079Z,8.50
2018-11-25T15:00:20.196Z,8.40
2018-11-25T15:02:58.422Z,8.30
2018-11-25T15:05:35.119Z,8.30
2018-11-25T15:08:03.337Z,8.20
2018-11-25T15:10:31.778Z,8.20
2018-11-25T15:13:00.116Z,8.40
2018-11-25T15:15:28.414Z,8.40
2018-11-25T15:17:56.683Z,8.30
2018-11-25T15:20:25.593Z,8.10
2018-11-25T15:22:57.686Z,7.90
2018-11-25T15:25:30.486Z,7.70
2018-11-25T15:27:58.710Z,7.50
2018-11-25T15:30:27.167Z,7.20
2018-11-25T15:32:55.401Z,6.90
2018-11-25T15:35:23.650Z,6.70
2018-11-25T15:37:53.355Z,6.50
2018-11-25T15:40:30.830Z,6.20
2018-11-25T15:42:59.478Z,6.00
2018-11-25T15:45:27.800Z,5.80
2018-11-25T15:48:08.267Z,5.60
2018-11-25T15:50:36.769Z,5.40
2018-11-25T15:53:06.748Z,5.20
2018-11-25T15:55:35.152Z,5.10
2018-11-25T15:58:03.501Z,5.00
2018-11-25T16:00:31.887Z,4.80
2018-11-25T16:03:00.148Z,4.70
2018-11-25T16:05:35.592Z,4.60
2018-11-25T16:08:04.951Z,4.50
2018-11-25T16:10:33.285Z,4.50
2018-11-25T16:13:01.639Z,4.40
2018-11-25T16:15:29.916Z,4.30
2018-11-25T16:17:58.205Z,4.30
2018-11-25T16:20:29.601Z,4.20
2018-11-25T16:23:01.048Z,4.20
2018-11-25T16:25:37.375Z,4.20
2018-11-25T16:28:45.866Z,4.30
2018-11-25T16:31:14.077Z,4.30
2018-11-25T16:33:42.591Z,4.30
2018-11-25T16:36:11.229Z,4.30
2018-11-25T16:38:39.960Z,4.30
2018-11-25T16:41:08.196Z,4.30
2018-11-25T16:43:36.845Z,4.20
2018-11-25T16:46:06.555Z,4.20
2018-11-25T16:48:35.163Z,4.20
2018-11-25T16:51:03.736Z,4.20
2018-11-25T16:53:31.953Z,4.30
2018-11-25T16:56:00.547Z,4.40
2018-11-25T16:58:28.727Z,4.50
2018-11-25T17:00:56.897Z,4.50
2018-11-25T17:03:26.022Z,4.60
2018-11-25T17:05:55.191Z,4.60
2018-11-25T17:08:33.695Z,4.60
2018-11-25T17:11:02.067Z,4.60
2018-11-25T17:13:30.597Z,4.60
2018-11-25T17:15:59.007Z,4.70
2018-11-25T17:18:28.009Z,4.80
2018-11-25T17:20:56.228Z,4.80
2018-11-25T17:23:24.539Z,4.90
2018-11-25T17:25:52.973Z,4.90
2018-11-25T17:28:21.339Z,5.00
2018-11-25T17:30:49.950Z,5.10
2018-11-25T17:33:18.766Z,5.10
2018-11-25T17:35:47.235Z,5.10
2018-11-25T17:38:15.714Z,5.10
2018-11-25T17:40:44.473Z,5.20
2018-11-25T17:43:15.854Z,5.20
2018-11-25T17:45:44.296Z,5.20
2018-11-25T17:48:12.840Z,5.20
2018-11-25T17:50:41.300Z,5.20
2018-11-25T17:53:09.977Z,5.20
2018-11-25T17:55:39.756Z,5.30
2018-11-25T17:58:08.202Z,5.30
2018-11-25T18:00:59.955Z,5.30
2018-11-25T18:03:30.546Z,5.30
2018-11-25T18:05:59.064Z,5.30
2018-11-25T18:08:27.535Z,5.30
2018-11-25T18:10:56.033Z,5.20
2018-11-25T18:13:27.520Z,5.20
2018-11-25T18:15:58.103Z,5.20
2018-11-25T18:18:40.189Z,5.20
2018-11-25T18:21:11.448Z,5.20
2018-11-25T18:23:40.089Z,5.20
2018-11-25T18:26:15.154Z,5.20
2018-11-25T18:28:43.704Z,5.10
2018-11-25T18:31:13.020Z,5.10
2018-11-25T18:33:41.487Z,5.10
2018-11-25T18:36:13.540Z,5.00
2018-11-25T18:38:42.361Z,5.00
2018-11-25T18:41:11.268Z,5.00
2018-11-25T18:43:39.545Z,5.10
2018-11-25T18:46:08.002Z,5.20
2018-11-25T18:48:39.890Z,5.20
2018-11-25T18:51:08.984Z,5.20
2018-11-25T18:53:37.247Z,5.20
2018-11-25T18:56:06.016Z,5.20
2018-11-25T18:58:34.344Z,5.20
2018-11-25T19:01:45.896Z,5.20
2018-11-25T19:04:14.370Z,5.10
2018-11-25T19:06:43.143Z,5.10
2018-11-25T19:09:18.453Z,5.10
2018-11-25T19:11:46.960Z,5.20
2018-11-25T19:14:15.346Z,5.10
2018-11-25T19:16:44.286Z,5.20
2018-11-25T19:19:12.982Z,5.10
2018-11-25T19:21:41.573Z,5.10
2018-11-25T19:24:10.303Z,5.10
2018-11-25T19:26:38.501Z,5.10
2018-11-25T19:29:06.826Z,5.10
2018-11-25T19:31:35.233Z,5.10
2018-11-25T19:34:03.506Z,5.10
2018-11-25T19:36:31.842Z,5.10
2018-11-25T19:38:59.982Z,5.10
2018-11-25T19:41:28.819Z,5.10
2018-11-25T19:43:59.105Z,5.00
2018-11-25T19:46:27.436Z,5.10
2018-11-25T19:48:56.162Z,5.10
2018-11-25T19:51:24.475Z,5.10
2018-11-25T19:53:53.034Z,5.10
2018-11-25T19:56:23.081Z,5.10
2018-11-25T19:58:52.034Z,5.10
2018-11-25T20:01:20.800Z,5.20
2018-11-25T20:03:49.267Z,5.20
2018-11-25T20:06:17.539Z,5.20
2018-11-25T20:08:46.227Z,5.20
2018-11-25T20:11:14.623Z,5.20
2018-11-25T20:13:42.960Z,5.30
2018-11-25T20:16:17.933Z,5.20
2018-11-25T20:18:46.860Z,5.20
2018-11-25T20:21:22.126Z,5.20
2018-11-25T20:23:54.133Z,5.20
2018-11-25T20:26:22.510Z,5.20
2018-11-25T20:28:50.816Z,5.20
2018-11-25T20:31:20.350Z,5.10
2018-11-25T20:33:52.234Z,5.10
2018-11-25T20:36:18.518Z,5.10
2018-11-25T20:38:52.574Z,5.10
2018-11-25T20:41:21.202Z,5.10
2018-11-25T20:43:49.549Z,5.10
2018-11-25T20:46:23.595Z,5.10
2018-11-25T20:48:52.556Z,5.20
2018-11-25T20:51:25.550Z,5.20
2018-11-25T20:53:57.831Z,5.30
2018-11-25T20:56:26.580Z,5.40
2018-11-25T20:58:55.095Z,5.40
2018-11-25T21:01:26.708Z,5.40
2018-11-25T21:03:55.050Z,5.40
2018-11-25T21:06:30.685Z,5.40
2018-11-25T21:08:59.523Z,5.40
2018-11-25T21:11:27.737Z,5.40
2018-11-25T21:13:56.106Z,5.30
2018-11-25T21:16:24.349Z,5.30
2018-11-25T21:18:52.602Z,5.20
2018-11-25T21:21:21.584Z,5.20
2018-11-25T21:23:51.797Z,5.20
2018-11-25T21:26:20.164Z,5.20
2018-11-25T21:28:48.459Z,5.20
2018-11-25T21:31:16.864Z,5.20
2018-11-25T21:33:51.208Z,5.20
2018-11-25T21:36:19.974Z,5.20
2018-11-25T21:38:48.357Z,5.10
2018-11-25T21:43:39.610Z,5.10
2018-11-25T21:46:07.836Z,5.10
2018-11-25T21:48:36.230Z,5.00
2018-11-25T21:51:05.010Z,5.00
2018-11-25T21:53:33.989Z,5.00
2018-11-25T21:56:02.631Z,5.00
2018-11-25T21:58:31.076Z,5.00
2018-11-25T22:01:02.492Z,5.00
2018-11-25T22:03:30.997Z,5.00
2018-11-25T22:05:59.158Z,5.00
2018-11-25T22:08:28.036Z,5.00
2018-11-25T22:10:59.055Z,5.00
2018-11-25T22:13:29.223Z,5.00
2018-11-25T22:15:57.812Z,5.00
2018-11-25T22:18:27.990Z,5.00
2018-11-25T22:20:56.858Z,5.00
2018-11-25T22:23:25.240Z,5.00
2018-11-25T22:25:53.960Z,5.00
2018-11-25T22:28:23.186Z,5.00
2018-11-25T22:30:52.022Z,4.90
2018-11-25T22:33:20.344Z,4.90
2018-11-25T22:35:48.677Z,4.90
2018-11-25T22:38:17.096Z,4.90
2018-11-25T22:40:47.317Z,4.90
2018-11-25T22:43:15.657Z,4.90
2018-11-25T22:45:44.067Z,4.90
2018-11-25T22:48:12.348Z,4.90
2018-11-25T22:50:40.858Z,4.90
2018-11-25T22:53:09.137Z,5.00
2018-11-25T22:55:37.470Z,5.00
2018-11-25T22:58:06.801Z,4.90
2018-11-25T23:00:36.790Z,4.90
2018-11-25T23:03:06.042Z,4.90
2018-11-25T23:05:51.731Z,4.90
2018-11-25T23:08:20.214Z,4.80
2018-11-25T23:10:48.743Z,4.80
2018-11-25T23:13:17.410Z,4.80
2018-11-25T23:15:45.783Z,4.80
2018-11-25T23:18:14.199Z,4.70
2018-11-25T23:20:42.568Z,4.70
2018-11-25T23:23:11.232Z,4.80
2018-11-25T23:25:40.125Z,4.80
2018-11-25T23:28:09.567Z,4.70
2018-11-25T23:30:38.548Z,4.70
2018-11-25T23:33:06.960Z,4.70
2018-11-25T23:35:35.377Z,4.70
2018-11-25T23:38:03.602Z,4.70
2018-11-25T23:40:31.991Z,4.70
2018-11-25T23:43:00.799Z,4.70
2018-11-25T23:45:36.813Z,4.70
2018-11-25T23:48:07.592Z,4.70
2018-11-25T23:50:36.186Z,4.70
2018-11-25T23:53:05.640Z,4.70
2018-11-25T23:55:34.966Z,4.70
2018-11-25T23:58:04.386Z,4.70
